Pagina principale
METAR-TAF:

METAR-TAF

Aeroporti :

Aeroporto delle Svalbard-Longyearbyen

Longyearbyen, Norvegia

latitudine: 78-15N, longitudine: 015-28E, altezza: 2 m

Osservazione

Il bollettino è stato emesso 1 ora e 9 minuti fa, alle 20:50 UTC
Vento 19 kt da nord/nord-ovest
Temperature -3°C
Umidità 68%
Pressione 1013 hPa
Visibilità 10 km o più
Nubi sparse ad un'altezza di 2900 ft

METAR: ENSB 192050Z 33019KT 9999 SCT029 M03/M08 Q1013 RMK WIND 1400FT 35017KT

Ora: 22:59 (21:59 UTC)

Previsione

Previsione valida dal 19 alle 18 UTC al 20 alle 18 UTC
Vento 18 kt da nord/nord-ovest
Visibilità 10 km o più
Poco nuvoloso ad un'altezza di 1200 ft
Nuvoloso ad un'altezza di 3000 ft
Temporaneamente
dal 19 alle 18 UTC al 20 alle 06 UTC
Vento 15 kt da nord con raffiche fino a 25 kt
Evoluzione graduale
dal 20 alle 14 UTC al 20 alle 17 UTC
Vento 8 kt da sud

TAF: ENSB 1918/2018 34018KT 9999 FEW012 BKN030 TEMPO 1918/2006 35015G25KT BECMG 2014/2017 18008KT

Osservazioni e previsioni meteorologiche di più di 4000 aeroporti (messaggi METAR e TAF).

Le stazioni disponibili sono rappresentate dai dischi gialli e rossi sulla carta.

Puntare il mouse per vedere il nome della stazione.

Clicca sopra per visualizzare le osservazioni e previsioni meteorologiche.

Per cambiare la mappa : fare clic sui pulsanti verdi con una croce nera per ingrandire, il pulsante verde con un trattino per diminuire, o sulla freccia verde per le mappe adiacenti.


METAR-TAF: